Time;durP1;ratioP1;P1;durP2;ratioP2;P2;SDS_P1;SDS_P2;PMS_P1;PMS_P2;Temp;Humidity;BMP_temperature;BMP_pressure;BME280_temperature;BME280_humidity;BME280_pressure;Samples;Min_cycle;Max_cycle;Signal;HPM_P1;HPM_P2
2022/09/04 00:00:14;;;;;;;15.47;6.03;;;;;;;11.56;68.52;100506.06;4247840;28;20308;-68
2022/09/04 00:03:07;;;;;;;13.47;6.67;;;;;;;11.46;68.42;100507.13;4256037;28;23296;-66
2022/09/04 00:05:38;;;;;;;18.30;6.93;;;;;;;11.51;68.93;100510.19;4250780;28;20597;-67
2022/09/04 00:08:23;;;;;;;16.80;6.53;;;;;;;11.40;69.11;100511.22;4248996;28;20238;-67
2022/09/04 00:11:25;;;;;;;14.87;6.70;;;;;;;11.37;70.00;100512.34;4250452;28;21101;-66
2022/09/04 00:14:06;;;;;;;15.63;6.97;;;;;;;11.40;69.33;100516.53;4246349;28;20233;-67
2022/09/04 00:16:41;;;;;;;17.57;7.83;;;;;;;11.37;69.55;100520.34;4238339;28;20249;-67
2022/09/04 00:19:15;;;;;;;14.60;7.10;;;;;;;11.20;70.58;100516.66;4240815;28;22791;-67
2022/09/04 00:21:49;;;;;;;16.27;6.63;;;;;;;11.16;70.92;100515.25;4222270;28;20234;-69
2022/09/04 00:24:41;;;;;;;18.73;7.37;;;;;;;11.14;70.83;100516.38;4234249;28;20637;-69
2022/09/04 00:27:20;;;;;;;19.20;7.10;;;;;;;11.10;70.78;100521.19;4260812;28;23542;-66
2022/09/04 00:29:54;;;;;;;22.07;6.97;;;;;;;11.01;71.75;100515.91;4225807;28;20483;-67
2022/09/04 00:32:38;;;;;;;16.70;6.73;;;;;;;10.95;72.41;100514.63;4244972;28;20249;-66
2022/09/04 00:35:15;;;;;;;21.50;7.70;;;;;;;10.83;73.17;100515.81;4258843;28;20322;-66
2022/09/04 00:38:02;;;;;;;19.77;7.47;;;;;;;10.85;72.40;100517.34;4249531;28;20230;-65
2022/09/04 00:40:34;;;;;;;15.53;7.53;;;;;;;10.87;72.68;100528.69;4225424;28;20234;-65
2022/09/04 00:43:35;;;;;;;16.50;7.53;;;;;;;10.83;73.26;100519.31;4252093;28;20668;-67
2022/09/04 00:46:30;;;;;;;18.80;7.80;;;;;;;10.81;72.95;100526.59;4244688;28;20239;-66
2022/09/04 00:49:35;;;;;;;16.77;6.90;;;;;;;10.69;74.22;100523.25;4241316;28;21158;-66
2022/09/04 00:52:32;;;;;;;16.53;7.73;;;;;;;10.71;73.73;100526.63;4238677;28;20241;-66
2022/09/04 00:55:40;;;;;;;15.97;7.00;;;;;;;10.76;73.74;100531.50;4245835;28;20384;-65
2022/09/04 00:58:29;;;;;;;18.53;7.53;;;;;;;10.69;73.92;100535.72;4265298;28;21112;-68
2022/09/04 01:00:57;;;;;;;22.13;8.53;;;;;;;10.55;74.69;100537.84;4251383;28;20235;-65
2022/09/04 01:03:52;;;;;;;21.10;8.20;;;;;;;10.53;75.18;100534.47;4248010;28;20231;-66
2022/09/04 01:06:30;;;;;;;18.80;7.10;;;;;;;10.67;74.45;100540.34;4241044;28;20363;-67
2022/09/04 01:09:42;;;;;;;17.47;7.23;;;;;;;10.54;74.88;100536.19;4234525;28;23335;-66
2022/09/04 01:12:28;;;;;;;16.50;7.00;;;;;;;10.59;74.81;100533.09;4223157;28;21568;-66
2022/09/04 01:15:13;;;;;;;16.30;7.37;;;;;;;10.53;74.94;100542.47;4253655;28;20238;-66
2022/09/04 01:17:51;;;;;;;17.53;8.07;;;;;;;10.53;75.23;100550.44;4243856;28;20302;-68
2022/09/04 01:20:26;;;;;;;19.03;7.60;;;;;;;10.53;75.26;100550.44;4244259;28;20432;-67
2022/09/04 01:23:16;;;;;;;16.47;7.30;;;;;;;10.53;74.95;100541.63;4247477;28;27097;-65
2022/09/04 01:25:59;;;;;;;15.87;7.30;;;;;;;10.32;76.21;100547.09;4241669;28;20244;-68
2022/09/04 01:28:48;;;;;;;21.73;7.93;;;;;;;10.45;76.05;100547.66;4251776;28;20238;-66
2022/09/04 01:31:23;;;;;;;23.47;7.77;;;;;;;10.41;75.41;100545.44;4257556;28;22788;-68
2022/09/04 01:34:34;;;;;;;15.63;7.13;;;;;;;10.40;76.11;100549.91;4240991;28;20253;-67
2022/09/04 01:37:42;;;;;;;21.27;7.70;;;;;;;10.34;75.97;100556.63;4260515;28;20233;-66
2022/09/04 01:40:22;;;;;;;20.33;7.57;;;;;;;10.28;76.40;100553.69;4199159;28;20235;-68
2022/09/04 01:43:07;;;;;;;18.70;7.37;;;;;;;10.13;77.15;100554.06;4204488;28;20236;-67
2022/09/04 01:45:52;;;;;;;20.43;7.83;;;;;;;10.10;77.47;100559.69;4234181;28;20314;-67
2022/09/04 01:48:26;;;;;;;23.27;7.47;;;;;;;9.99;77.62;100557.13;4253966;28;20510;-65
2022/09/04 01:50:57;;;;;;;20.07;7.97;;;;;;;10.04;77.48;100557.56;4251971;28;20270;-67
2022/09/04 01:53:25;;;;;;;16.47;7.27;;;;;;;9.92;78.24;100564.81;4254599;28;20241;-65
2022/09/04 01:56:20;;;;;;;15.47;6.50;;;;;;;9.88;78.88;100554.59;4252992;28;22443;-67
2022/09/04 01:58:55;;;;;;;17.73;8.27;;;;;;;9.84;79.04;100558.53;4240254;28;20929;-69
2022/09/04 02:01:30;;;;;;;16.30;7.43;;;;;;;9.94;78.17;100556.72;4249930;28;21137;-66
2022/09/04 02:04:20;;;;;;;15.90;7.50;;;;;;;10.03;78.08;100552.41;4254258;28;20300;-69
2022/09/04 02:07:14;;;;;;;19.63;8.00;;;;;;;9.91;78.36;100549.03;4254622;28;20606;-70
2022/09/04 02:10:00;;;;;;;18.07;7.60;;;;;;;9.81;78.83;100551.69;4235560;28;20249;-66
2022/09/04 02:12:36;;;;;;;17.63;7.00;;;;;;;9.82;78.85;100550.69;4241753;28;25981;-68
2022/09/04 02:15:12;;;;;;;14.20;7.00;;;;;;;9.87;79.12;100553.78;4259206;28;20673;-66
2022/09/04 02:17:46;;;;;;;17.77;7.73;;;;;;;9.70;79.59;100546.47;4234572;28;20239;-67
2022/09/04 02:20:22;;;;;;;22.17;8.17;;;;;;;9.73;79.97;100549.69;4250125;28;20350;-69
2022/09/04 02:23:10;;;;;;;15.93;7.30;;;;;;;9.78;79.79;100551.94;4246617;28;20226;-68
2022/09/04 02:25:57;;;;;;;16.20;6.87;;;;;;;9.72;79.58;100548.00;4244289;28;20226;-68
2022/09/04 02:28:46;;;;;;;24.43;7.90;;;;;;;9.71;79.82;100543.66;4260398;28;20374;-66
2022/09/04 02:31:31;;;;;;;17.63;7.40;;;;;;;9.72;79.74;100555.16;4254429;28;20486;-69
2022/09/04 02:34:12;;;;;;;17.10;8.00;;;;;;;9.70;79.92;100557.09;4244281;28;20230;-68
2022/09/04 02:36:45;;;;;;;20.07;7.73;;;;;;;9.76;79.33;100550.38;4253701;28;21630;-72
2022/09/04 02:39:35;;;;;;;20.97;7.90;;;;;;;9.76;79.59;100551.22;4253322;28;25284;-70
2022/09/04 02:42:23;;;;;;;20.87;7.80;;;;;;;9.72;80.01;100549.84;4250196;28;20247;-71
2022/09/04 02:44:52;;;;;;;19.70;7.53;;;;;;;9.52;81.06;100548.94;4239924;28;21267;-72
2022/09/04 02:47:50;;;;;;;15.83;7.33;;;;;;;9.55;80.63;100548.66;4253523;28;20296;-72
2022/09/04 02:50:45;;;;;;;15.73;7.50;;;;;;;9.51;80.99;100545.44;4256497;28;20834;-72
2022/09/04 02:53:50;;;;;;;17.67;7.27;;;;;;;9.60;80.58;100543.81;4249084;28;20395;-71
2022/09/04 02:56:30;;;;;;;16.57;6.40;;;;;;;9.60;80.37;100546.47;4249504;28;20237;-72
2022/09/04 02:59:18;;;;;;;21.23;7.93;;;;;;;9.52;80.67;100554.25;4242893;28;20222;-70
2022/09/04 03:01:56;;;;;;;18.47;7.33;;;;;;;9.37;81.70;100545.00;4247477;28;21111;-71
2022/09/04 03:04:38;;;;;;;15.57;7.23;;;;;;;9.45;81.91;100550.44;4258780;28;20694;-71
2022/09/04 03:07:12;;;;;;;12.80;6.63;;;;;;;9.36;81.81;100548.59;4241444;28;20238;-71
2022/09/04 03:09:51;;;;;;;18.37;7.67;;;;;;;9.32;82.23;100548.03;4224813;28;20307;-70
2022/09/04 03:12:28;;;;;;;17.47;7.37;;;;;;;9.39;81.62;100550.97;4244370;28;20230;-71
2022/09/04 03:15:16;;;;;;;15.77;7.43;;;;;;;9.46;81.49;100552.16;4231293;28;21609;-70
2022/09/04 03:17:48;;;;;;;17.73;7.00;;;;;;;9.44;81.86;100564.72;4241221;28;22454;-71
2022/09/04 03:20:51;;;;;;;16.13;7.27;;;;;;;9.35;81.89;100558.38;4250393;28;20234;-71
2022/09/04 03:23:42;;;;;;;17.50;6.63;;;;;;;9.42;81.96;100556.88;4240737;28;20237;-72
2022/09/04 03:26:17;;;;;;;14.77;7.23;;;;;;;9.33;82.46;100565.66;4261681;28;20641;-70
2022/09/04 03:28:59;;;;;;;17.77;6.83;;;;;;;9.29;82.71;100567.75;4233211;28;20234;-71
2022/09/04 03:31:38;;;;;;;15.33;6.90;;;;;;;9.30;82.47;100565.94;4253220;28;20295;-73
2022/09/04 03:34:28;;;;;;;19.70;7.67;;;;;;;9.26;82.73;100568.00;4262066;28;20425;-72
2022/09/04 03:37:11;;;;;;;15.70;7.17;;;;;;;9.21;83.33;100564.91;4268118;28;21550;-72
2022/09/04 03:40:07;;;;;;;14.77;7.90;;;;;;;9.17;83.62;100574.09;4246040;28;20426;-70
2022/09/04 03:42:56;;;;;;;17.73;7.40;;;;;;;9.31;83.35;100572.91;4258937;28;20846;-70
2022/09/04 03:45:35;;;;;;;16.77;7.57;;;;;;;9.44;82.33;100578.00;4251333;28;20243;-73
2022/09/04 03:48:26;;;;;;;14.97;6.73;;;;;;;9.40;82.11;100565.97;4232244;28;21218;-70
2022/09/04 03:51:31;;;;;;;15.13;6.97;;;;;;;9.35;82.54;100574.31;4261568;28;20241;-71
2022/09/04 03:54:36;;;;;;;18.20;7.00;;;;;;;9.28;82.73;100568.69;4230904;28;21558;-70
2022/09/04 03:57:14;;;;;;;15.07;7.20;;;;;;;9.32;82.64;100569.28;4249405;28;20230;-72
2022/09/04 03:59:53;;;;;;;15.17;6.30;;;;;;;9.35;82.50;100581.47;4233395;28;22186;-71
2022/09/04 04:02:59;;;;;;;17.43;7.93;;;;;;;9.28;83.37;100584.63;4250822;28;20934;-71
2022/09/04 04:05:51;;;;;;;16.43;7.60;;;;;;;9.30;83.00;100576.53;4185374;28;20232;-69
2022/09/04 04:08:36;;;;;;;18.20;7.30;;;;;;;9.34;83.17;100588.59;4186789;28;21616;-73
2022/09/04 04:11:06;;;;;;;15.17;7.47;;;;;;;9.34;83.63;100582.41;4266053;28;20221;-75
2022/09/04 04:14:00;;;;;;;15.53;6.77;;;;;;;9.32;83.34;100585.22;4289920;28;20384;-72
2022/09/04 04:16:39;;;;;;;16.50;7.07;;;;;;;9.41;83.75;100591.53;4332095;28;20231;-72
2022/09/04 04:19:27;;;;;;;16.03;7.13;;;;;;;9.49;83.30;100581.09;4300158;28;20234;-71
2022/09/04 04:22:05;;;;;;;16.13;7.00;;;;;;;9.54;83.81;100584.19;4307398;28;21944;-71
2022/09/04 04:25:10;;;;;;;15.43;7.33;;;;;;;9.55;83.72;100590.31;4296072;28;20234;-71
2022/09/04 04:27:43;;;;;;;16.63;7.50;;;;;;;9.57;83.58;100599.00;4235263;28;26210;-70
2022/09/04 04:30:13;;;;;;;16.43;7.10;;;;;;;9.69;83.34;100597.91;4271104;28;20323;-71
2022/09/04 04:33:18;;;;;;;22.47;8.50;;;;;;;9.61;83.37;100611.88;4252592;28;21641;-69
2022/09/04 04:36:16;;;;;;;16.20;7.33;;;;;;;9.68;83.41;100607.72;4249192;28;21202;-71
2022/09/04 04:38:54;;;;;;;15.47;7.60;;;;;;;9.68;83.57;100613.03;4273451;28;21597;-70
2022/09/04 04:42:02;;;;;;;17.03;7.67;;;;;;;9.68;83.86;100613.03;4262505;28;20244;-73
2022/09/04 04:45:48;;;;;;;14.70;6.30;;;;;;;9.72;83.53;100611.78;4261492;28;20299;-72
2022/09/04 04:47:39;;;;;;;17.97;7.27;;;;;;;9.79;83.89;100608.59;4265203;28;21750;-72
2022/09/04 04:50:21;;;;;;;13.57;7.10;;;;;;;9.81;84.60;100609.28;4280215;28;20270;-71
2022/09/04 04:53:13;;;;;;;15.87;7.83;;;;;;;9.83;84.47;100615.31;4236555;28;20375;-70
2022/09/04 04:56:03;;;;;;;16.20;7.80;;;;;;;9.94;84.57;100618.69;4236520;28;20222;-71
2022/09/04 04:58:50;;;;;;;13.43;7.33;;;;;;;9.99;84.59;100626.25;4261024;28;22225;-75
2022/09/04 05:01:24;;;;;;;18.67;7.70;;;;;;;10.09;84.94;100626.28;4247215;28;20601;-71
2022/09/04 05:04:12;;;;;;;16.20;8.03;;;;;;;10.15;85.03;100626.56;4239548;28;21828;-70
2022/09/04 05:06:49;;;;;;;15.20;7.60;;;;;;;10.28;85.29;100630.81;4240499;28;20241;-70
2022/09/04 05:09:32;;;;;;;18.17;7.87;;;;;;;10.35;84.67;100631.97;4264854;28;20502;-70
2022/09/04 05:12:10;;;;;;;14.27;7.57;;;;;;;10.45;84.81;100632.81;4246360;28;20233;-69
2022/09/04 05:14:44;;;;;;;17.93;8.03;;;;;;;10.61;85.00;100631.41;4218812;28;20453;-65
2022/09/04 05:17:35;;;;;;;19.50;7.90;;;;;;;10.66;85.06;100632.66;4242769;28;20229;-65
2022/09/04 05:20:22;;;;;;;15.07;8.03;;;;;;;10.92;86.40;100640.91;4244325;28;20469;-69
2022/09/04 05:23:08;;;;;;;18.00;9.00;;;;;;;10.97;87.90;100643.16;4239429;28;21190;-64
2022/09/04 05:26:13;;;;;;;20.80;9.07;;;;;;;11.14;87.29;100638.91;4252088;28;20238;-65
2022/09/04 05:29:04;;;;;;;20.17;9.20;;;;;;;11.25;88.42;100637.91;4245999;28;20398;-67
2022/09/04 05:31:47;;;;;;;18.40;8.80;;;;;;;11.48;87.24;100646.41;4246297;28;20847;-72
2022/09/04 05:34:35;;;;;;;19.87;8.73;;;;;;;11.70;87.40;100643.34;4248795;28;20238;-65
2022/09/04 05:37:06;;;;;;;19.17;9.53;;;;;;;11.77;87.25;100644.44;4242060;28;21378;-65
2022/09/04 05:39:47;;;;;;;18.63;9.23;;;;;;;11.97;86.85;100649.72;4240063;28;21426;-75
2022/09/04 05:42:32;;;;;;;19.87;9.17;;;;;;;12.08;86.38;100648.66;4254355;28;20302;-71
2022/09/04 05:45:20;;;;;;;15.60;9.07;;;;;;;12.17;86.25;100663.78;4287056;28;21767;-75
2022/09/04 05:48:01;;;;;;;18.17;8.63;;;;;;;12.26;85.30;100662.88;4243491;28;20817;-72
2022/09/04 05:50:30;;;;;;;19.60;8.47;;;;;;;12.39;86.05;100662.53;4258853;28;21152;-73
2022/09/04 05:53:13;;;;;;;13.67;7.67;;;;;;;12.70;84.93;100664.81;4254377;28;20250;-70
2022/09/04 05:56:03;;;;;;;14.80;7.97;;;;;;;12.82;83.38;100668.91;4253230;28;23795;-72
2022/09/04 05:59:01;;;;;;;12.33;7.53;;;;;;;12.98;82.93;100670.91;4260066;28;22147;-79
2022/09/04 06:01:55;;;;;;;12.37;7.43;;;;;;;13.09;82.81;100671.50;4259485;28;20401;-73
2022/09/04 06:04:38;;;;;;;14.27;7.53;;;;;;;13.13;82.08;100668.50;4247408;28;20243;-74
2022/09/04 06:07:26;;;;;;;14.60;7.53;;;;;;;13.28;82.14;100675.00;4252452;28;21595;-73
2022/09/04 06:09:59;;;;;;;15.70;8.37;;;;;;;13.41;81.48;100675.41;4252619;28;20234;-74
2022/09/04 06:12:47;;;;;;;17.03;8.27;;;;;;;13.59;80.00;100682.53;4249437;28;21520;-71
2022/09/04 06:16:01;;;;;;;16.67;8.07;;;;;;;13.72;79.54;100682.94;4260785;28;21014;-73
2022/09/04 06:19:15;;;;;;;18.27;8.00;;;;;;;13.85;78.71;100688.69;4211931;28;20233;-69
2022/09/04 06:21:42;;;;;;;12.77;7.17;;;;;;;13.90;78.59;100686.34;4208020;28;20226;-70
2022/09/04 06:24:19;;;;;;;12.67;7.70;;;;;;;14.01;78.13;100697.78;4247818;28;20222;-72
2022/09/04 06:27:07;;;;;;;16.30;7.53;;;;;;;14.10;78.17;100702.19;4239273;28;21071;-68
2022/09/04 06:29:53;;;;;;;11.17;6.80;;;;;;;14.26;77.69;100696.88;4246006;28;20384;-70
2022/09/04 06:32:26;;;;;;;13.20;7.13;;;;;;;14.45;77.02;100698.44;4253716;28;20340;-69
2022/09/04 06:35:10;;;;;;;13.80;7.03;;;;;;;14.68;75.93;100698.69;4262067;28;20229;-72
2022/09/04 06:38:14;;;;;;;15.27;6.53;;;;;;;14.88;74.49;100698.34;4258513;28;20568;-70
2022/09/04 06:41:07;;;;;;;12.23;7.17;;;;;;;14.99;74.30;100708.75;4265041;28;20233;-70
2022/09/04 06:43:57;;;;;;;14.80;7.10;;;;;;;15.12;73.91;100709.06;4264205;28;20281;-72
2022/09/04 06:46:33;;;;;;;12.40;7.30;;;;;;;15.41;72.37;100711.25;4261169;28;21527;-70
2022/09/04 06:49:08;;;;;;;10.50;5.90;;;;;;;15.49;72.07;100714.91;4244666;28;20280;-75
2022/09/04 06:51:51;;;;;;;14.43;6.80;;;;;;;15.70;71.43;100717.06;4233975;28;20450;-71
2022/09/04 06:55:00;;;;;;;10.90;6.17;;;;;;;16.34;69.74;100717.00;4252872;28;20858;-71
2022/09/04 06:57:45;;;;;;;9.50;5.20;;;;;;;19.38;57.79;100740.44;4237794;28;22428;-70
2022/09/04 07:00:16;;;;;;;12.30;5.57;;;;;;;22.58;46.29;100754.59;4258320;28;22788;-69
2022/09/04 07:02:54;;;;;;;9.37;4.90;;;;;;;25.17;39.35;100767.50;4269185;28;20611;-69
2022/09/04 07:05:39;;;;;;;7.97;4.43;;;;;;;27.34;33.54;100786.34;4258314;28;21312;-70
2022/09/04 07:08:32;;;;;;;9.23;4.43;;;;;;;29.10;29.54;100790.34;4283406;28;20217;-70
2022/09/04 07:11:19;;;;;;;10.20;4.97;;;;;;;30.28;27.53;100800.28;4260579;28;20221;-69
2022/09/04 07:13:53;;;;;;;8.70;4.13;;;;;;;31.72;25.26;100806.88;4278402;28;20233;-65
2022/09/04 07:16:31;;;;;;;7.85;4.18;;;;;;;32.41;24.23;100807.28;4245269;28;21801;-68
2022/09/04 07:19:36;;;;;;;8.77;4.18;;;;;;;33.68;22.19;100811.16;4266680;28;20764;-64
2022/09/04 07:22:33;;;;;;;8.23;3.83;;;;;;;34.01;21.08;100806.69;4250327;28;22616;-65
2022/09/04 07:25:02;;;;;;;9.02;3.83;;;;;;;34.64;20.86;100816.72;4253126;28;20238;-66
2022/09/04 07:27:39;;;;;;;6.60;3.13;;;;;;;35.41;19.33;100820.31;4254283;28;20311;-64
2022/09/04 07:30:11;;;;;;;4.35;3.05;;;;;;;35.26;19.12;100821.38;4249686;28;20324;-64
2022/09/04 07:32:48;;;;;;;7.28;3.47;;;;;;;34.75;19.39;100820.19;4244590;28;20234;-65
2022/09/04 07:35:37;;;;;;;9.77;2.70;;;;;;;34.72;19.56;100811.66;4238661;28;21539;-64
2022/09/04 07:38:36;;;;;;;6.97;3.25;;;;;;;35.65;18.50;100823.78;4233462;28;20265;-64
2022/09/04 07:41:31;;;;;;;9.43;3.00;;;;;;;36.07;17.95;100830.19;4244451;28;21659;-66
2022/09/04 07:44:16;;;;;;;5.03;2.90;;;;;;;36.24;17.65;100821.28;4272572;28;20234;-65
2022/09/04 07:46:51;;;;;;;4.30;2.80;;;;;;;36.06;17.69;100814.72;4243444;28;20243;-65
2022/09/04 07:49:56;;;;;;;5.78;3.13;;;;;;;35.91;18.46;100815.00;4246737;28;20231;-65
2022/09/04 07:52:57;;;;;;;7.88;3.03;;;;;;;33.65;19.92;100800.72;4263355;28;21189;-64
2022/09/04 07:55:35;;;;;;;5.10;2.90;;;;;;;33.31;20.96;100797.94;4255727;28;20412;-64
2022/09/04 07:58:36;;;;;;;4.13;2.80;;;;;;;33.98;20.06;100801.75;4248277;28;20238;-64
2022/09/04 08:01:22;;;;;;;7.13;3.05;;;;;;;33.37;20.51;100800.38;4263191;28;21099;-64
2022/09/04 08:04:08;;;;;;;7.38;3.45;;;;;;;34.34;19.67;100801.34;4250487;28;20223;-65
2022/09/04 08:06:37;;;;;;;6.65;3.38;;;;;;;33.34;20.66;100808.41;4252330;28;20262;-70
2022/09/04 08:09:32;;;;;;;11.98;3.45;;;;;;;32.15;21.93;100796.38;4271435;28;25903;-63
2022/09/04 08:12:31;;;;;;;10.35;3.15;;;;;;;31.31;23.13;100799.47;4264802;28;20241;-68
2022/09/04 08:15:04;;;;;;;6.50;3.30;;;;;;;29.57;24.90;100782.25;4252098;28;21320;-65
2022/09/04 08:17:50;;;;;;;5.03;3.10;;;;;;;28.35;27.58;100766.22;4241294;28;20519;-65
2022/09/04 08:20:45;;;;;;;9.27;3.80;;;;;;;27.23;29.08;100768.13;4257181;28;20299;-68
2022/09/04 08:23:34;;;;;;;6.60;3.23;;;;;;;26.05;30.14;100763.06;4256955;28;20226;-62
2022/09/04 08:26:26;;;;;;;6.23;3.70;;;;;;;24.53;34.13;100755.44;4244344;28;20388;-63
2022/09/04 08:29:12;;;;;;;11.27;3.87;;;;;;;24.74;34.19;100751.38;4238931;28;20373;-65
2022/09/04 08:31:42;;;;;;;7.50;3.40;;;;;;;24.81;33.86;100754.84;4242367;28;25260;-64
2022/09/04 08:34:44;;;;;;;8.63;3.27;;;;;;;24.09;35.16;100757.41;4252192;28;21685;-64
2022/09/04 08:37:49;;;;;;;7.60;3.30;;;;;;;24.37;34.50;100763.16;4255417;28;20241;-63
2022/09/04 08:40:37;;;;;;;8.43;3.87;;;;;;;24.04;34.39;100757.25;4258954;28;20440;-63
2022/09/04 08:43:28;;;;;;;6.20;3.60;;;;;;;23.85;34.67;100759.13;4286220;28;20289;-63
2022/09/04 08:46:23;;;;;;;9.30;3.53;;;;;;;24.02;33.88;100762.91;4257556;28;20300;-66
2022/09/04 08:49:21;;;;;;;10.67;3.90;;;;;;;24.13;33.88;100761.34;4237625;28;20382;-62
2022/09/04 08:52:00;;;;;;;7.27;3.37;;;;;;;24.28;33.47;100764.50;4264582;28;20282;-66
2022/09/04 08:54:49;;;;;;;8.03;3.67;;;;;;;24.16;34.16;100750.00;4265515;28;20234;-64
2022/09/04 08:57:45;;;;;;;7.40;3.40;;;;;;;24.12;33.46;100755.06;4273182;28;20292;-64
2022/09/04 09:00:44;;;;;;;9.17;3.33;;;;;;;24.00;33.89;100757.72;4286846;28;20240;-70
2022/09/04 09:03:35;;;;;;;9.00;4.00;;;;;;;23.72;34.57;100760.91;4265616;28;20234;-64
2022/09/04 09:06:20;;;;;;;10.03;3.43;;;;;;;23.08;35.79;100752.00;4284434;28;21802;-65
2022/09/04 09:09:20;;;;;;;6.77;3.40;;;;;;;23.45;34.91;100760.28;4249161;28;23086;-68
2022/09/04 09:11:53;;;;;;;8.60;3.40;;;;;;;23.77;34.01;100762.97;4272661;28;22693;-64
2022/09/04 09:14:41;;;;;;;6.07;3.50;;;;;;;23.82;33.75;100760.41;4274223;28;21737;-73
2022/09/04 09:17:37;;;;;;;11.03;3.80;;;;;;;23.71;33.65;100756.50;4257714;28;20698;-65
2022/09/04 09:20:41;;;;;;;8.17;3.77;;;;;;;23.54;34.18;100753.53;4250069;28;20271;-60
2022/09/04 09:23:13;;;;;;;7.57;3.70;;;;;;;23.25;35.80;100748.75;4308991;28;20234;-71
2022/09/04 09:26:22;;;;;;;12.27;4.30;;;;;;;23.21;35.40;100747.56;4259187;28;20233;-72
2022/09/04 09:29:07;;;;;;;11.83;4.40;;;;;;;23.58;34.99;100753.94;4268645;28;20521;-72
2022/09/04 09:31:53;;;;;;;8.33;3.73;;;;;;;23.32;35.90;100746.81;4263056;28;22779;-69
2022/09/04 09:35:00;;;;;;;7.97;4.30;;;;;;;23.06;35.96;100742.44;4256120;28;20233;-67
2022/09/04 09:37:47;;;;;;;6.80;3.90;;;;;;;23.04;36.13;100739.97;4251853;28;21566;-68
2022/09/04 09:40:26;;;;;;;5.73;3.70;;;;;;;22.85;35.33;100738.16;4265725;28;22219;-71
2022/09/04 09:43:11;;;;;;;7.60;4.17;;;;;;;22.92;35.09;100742.50;4259101;28;22112;-69
2022/09/04 09:45:59;;;;;;;11.23;4.27;;;;;;;23.12;35.34;100744.28;4250302;28;20261;-67
2022/09/04 09:49:03;;;;;;;6.63;3.63;;;;;;;22.99;35.22;100742.47;4268876;28;20297;-70
2022/09/04 09:51:49;;;;;;;9.20;4.00;;;;;;;22.75;35.41;100750.31;4282231;28;23523;-68
2022/09/04 09:54:36;;;;;;;8.07;3.67;;;;;;;21.98;36.28;100740.41;4281575;28;20785;-67
2022/09/04 09:57:37;;;;;;;10.43;4.43;;;;;;;22.12;36.04;100742.88;4260481;28;20226;-69
2022/09/04 10:00:14;;;;;;;10.30;4.57;;;;;;;21.81;34.17;100748.97;4276759;28;21741;-68
2022/09/04 10:03:01;;;;;;;8.37;4.03;;;;;;;21.68;34.66;100744.44;4299381;28;20308;-70
2022/09/04 10:05:53;;;;;;;10.97;4.33;;;;;;;21.63;34.53;100746.94;4265793;28;20233;-68
2022/09/04 10:08:59;;;;;;;9.93;4.60;;;;;;;21.63;34.28;100736.13;4297052;28;20274;-71
2022/09/04 10:12:00;;;;;;;8.87;4.23;;;;;;;21.36;34.71;100739.84;4272255;28;20245;-66
2022/09/04 10:14:52;;;;;;;7.43;4.50;;;;;;;21.43;35.04;100736.13;4269048;28;20231;-68
2022/09/04 10:17:32;;;;;;;13.87;5.10;;;;;;;21.50;34.59;100731.53;4291436;28;20298;-64
2022/09/04 10:20:14;;;;;;;10.77;5.00;;;;;;;21.43;33.71;100728.00;4292055;28;20260;-67
2022/09/04 10:23:03;;;;;;;9.27;5.10;;;;;;;21.39;35.00;100731.28;4289065;28;20733;-65
2022/09/04 10:25:54;;;;;;;10.87;4.83;;;;;;;21.48;34.30;100733.59;4268103;28;22004;-67
2022/09/04 10:28:56;;;;;;;9.17;4.40;;;;;;;21.45;33.76;100734.03;4261441;28;20261;-65
2022/09/04 10:31:29;;;;;;;11.53;4.57;;;;;;;21.16;34.82;100731.72;4260343;28;22181;-65
2022/09/04 10:34:22;;;;;;;9.03;4.63;;;;;;;21.38;34.77;100727.75;4282134;28;20322;-66
2022/09/04 10:37:19;;;;;;;8.53;4.43;;;;;;;21.79;33.95;100728.56;4282576;28;22887;-68
2022/09/04 10:43:15;;;;;;;8.43;4.47;;;;;;;22.34;32.15;100731.78;4264620;28;20230;-67
2022/09/04 10:46:01;;;;;;;9.30;4.70;;;;;;;22.42;31.29;100744.25;4265512;28;20248;-66
2022/09/04 10:48:52;;;;;;;8.30;4.33;;;;;;;22.59;31.31;100739.16;4275684;28;20233;-66
2022/09/04 10:51:30;;;;;;;10.57;4.93;;;;;;;22.66;30.86;100739.94;4274455;28;21741;-66
2022/09/04 10:54:09;;;;;;;8.83;4.43;;;;;;;22.76;30.49;100741.13;4274531;28;22919;-66
2022/09/04 10:57:02;;;;;;;9.50;4.73;;;;;;;22.79;29.92;100748.00;4280113;28;20612;-66
2022/09/04 11:00:04;;;;;;;10.57;4.57;;;;;;;22.79;30.16;100741.75;4277375;28;20466;-68
2022/09/04 11:03:02;;;;;;;9.30;5.03;;;;;;;22.95;29.28;100749.38;4278452;28;20656;-67
2022/09/04 11:06:01;;;;;;;9.20;5.13;;;;;;;23.24;29.62;100733.53;4242226;28;23035;-67
2022/09/04 11:08:49;;;;;;;11.37;5.03;;;;;;;23.11;29.47;100735.31;4303021;28;22290;-67
2022/09/04 11:11:35;;;;;;;8.13;4.73;;;;;;;22.88;29.74;100744.00;4259003;28;20830;-66
2022/09/04 11:14:27;;;;;;;8.63;4.43;;;;;;;22.55;29.03;100738.75;4244747;28;20238;-67
2022/09/04 11:17:27;;;;;;;12.50;4.87;;;;;;;22.47;29.78;100737.09;4254585;28;22830;-68
2022/09/04 11:19:59;;;;;;;7.53;3.80;;;;;;;22.69;29.75;100743.06;4288301;28;20238;-68
2022/09/04 11:22:56;;;;;;;7.43;4.30;;;;;;;22.87;29.21;100741.47;4265975;28;20655;-67
2022/09/04 11:25:44;;;;;;;13.43;4.80;;;;;;;23.03;29.06;100734.72;4258746;28;20962;-67
2022/09/04 11:28:39;;;;;;;7.00;4.20;;;;;;;23.09;28.42;100734.69;4295685;28;20354;-66
2022/09/04 11:31:23;;;;;;;9.63;4.17;;;;;;;23.30;27.12;100738.09;4263650;28;20416;-66
2022/09/04 11:34:10;;;;;;;8.07;4.40;;;;;;;23.30;26.94;100738.09;4288759;28;20646;-68
2022/09/04 11:36:57;;;;;;;9.90;4.70;;;;;;;23.66;27.25;100747.38;4285650;28;20292;-67
2022/09/04 11:39:51;;;;;;;7.60;4.50;;;;;;;23.79;27.07;100739.94;4256974;28;20446;-66
2022/09/04 11:42:27;;;;;;;11.30;5.50;;;;;;;23.79;27.69;100744.56;4257135;28;20431;-68
2022/09/04 11:45:25;;;;;;;6.33;4.07;;;;;;;23.91;26.59;100740.03;4266649;28;21713;-67
2022/09/04 11:47:59;;;;;;;12.20;4.43;;;;;;;23.91;26.75;100740.03;4286859;28;21083;-66
2022/09/04 11:50:37;;;;;;;9.37;4.47;;;;;;;24.01;26.60;100736.78;4248379;28;20231;-68
2022/09/04 11:53:39;;;;;;;10.37;4.20;;;;;;;23.77;27.09;100733.09;4236493;28;20227;-67
2022/09/04 11:56:24;;;;;;;8.50;4.50;;;;;;;23.39;28.24;100734.88;4280971;28;20235;-66
2022/09/04 11:59:19;;;;;;;10.90;4.03;;;;;;;22.98;30.34;100727.22;4246515;28;20238;-67
2022/09/04 12:02:07;;;;;;;7.50;4.30;;;;;;;22.53;32.05;100724.59;4261931;28;21274;-69
2022/09/04 12:05:02;;;;;;;12.97;4.30;;;;;;;22.31;33.10;100722.19;4259191;28;22007;-68
2022/09/04 12:07:54;;;;;;;9.30;4.57;;;;;;;22.29;33.48;100718.03;4250924;28;20445;-67
2022/09/04 12:10:46;;;;;;;11.97;4.50;;;;;;;22.44;33.28;100720.47;4293004;28;20301;-67
2022/09/04 12:13:15;;;;;;;13.03;4.33;;;;;;;22.21;33.83;100720.97;4267717;28;21075;-67
2022/09/04 12:15:56;;;;;;;7.03;4.30;;;;;;;21.99;34.05;100713.09;4264241;28;20245;-67
2022/09/04 12:18:53;;;;;;;8.10;3.67;;;;;;;21.81;32.92;100710.22;4259094;28;20256;-68
2022/09/04 12:21:51;;;;;;;8.37;3.90;;;;;;;21.45;34.76;100706.13;4244545;28;21512;-69
2022/09/04 12:24:56;;;;;;;10.50;4.37;;;;;;;21.47;36.24;100710.28;4261566;28;20229;-67
2022/09/04 12:27:44;;;;;;;7.17;4.17;;;;;;;21.40;35.47;100712.19;4273659;28;20326;-67
2022/09/04 12:30:22;;;;;;;10.73;4.37;;;;;;;21.39;35.90;100715.88;4249836;28;20637;-70
2022/09/04 12:33:19;;;;;;;8.63;4.17;;;;;;;21.29;34.63;100712.78;4241810;28;23085;-69
2022/09/04 12:36:05;;;;;;;11.93;4.20;;;;;;;21.32;34.47;100715.06;4266012;28;20428;-67
2022/09/04 12:39:01;;;;;;;11.00;4.80;;;;;;;21.34;34.65;100704.84;4254484;28;22165;-69
2022/09/04 12:41:48;;;;;;;11.43;4.33;;;;;;;21.31;34.75;100705.28;4282790;28;21085;-68
2022/09/04 12:44:37;;;;;;;9.97;4.17;;;;;;;20.97;35.17;100709.00;4234531;28;20283;-66
2022/09/04 12:47:12;;;;;;;9.60;4.13;;;;;;;20.93;34.95;100697.78;4270381;28;22361;-68
2022/09/04 12:49:45;;;;;;;14.33;4.50;;;;;;;21.04;35.07;100699.84;4276845;28;20322;-68
2022/09/04 12:52:20;;;;;;;9.60;4.03;;;;;;;21.18;34.55;100705.28;4257914;28;20268;-69
2022/09/04 12:55:02;;;;;;;9.07;4.27;;;;;;;21.20;34.41;100697.78;4244973;28;20237;-67